createdAt,value
2022-09-03T00:01:22.554Z,100878.73
2022-09-03T00:04:00.249Z,100875.92
2022-09-03T00:06:43.961Z,100876.37
2022-09-03T00:09:48.080Z,100873.38
2022-09-03T00:12:29.155Z,100882.48
2022-09-03T00:15:12.832Z,100883.97
2022-09-03T00:17:59.190Z,100886.19
2022-09-03T00:20:37.489Z,100884.35
2022-09-03T00:23:12.419Z,100883.70
2022-09-03T00:26:03.032Z,100884.21
2022-09-03T00:28:39.526Z,100883.09
2022-09-03T00:31:39.105Z,100878.30
2022-09-03T00:34:23.423Z,100881.28
2022-09-03T00:36:51.875Z,100879.07
2022-09-03T00:39:22.691Z,100877.16
2022-09-03T00:42:15.746Z,100873.48
2022-09-03T00:45:13.410Z,100875.29
2022-09-03T00:48:17.663Z,100873.73
2022-09-03T00:51:12.165Z,100878.36
2022-09-03T00:53:58.474Z,100881.42
2022-09-03T00:56:48.403Z,100883.03
2022-09-03T00:59:23.187Z,100884.81
2022-09-03T01:02:03.149Z,100881.72
2022-09-03T01:04:59.986Z,100884.21
2022-09-03T01:07:52.166Z,100887.23
2022-09-03T01:10:39.496Z,100889.91
2022-09-03T01:13:32.295Z,100885.17
2022-09-03T01:16:22.377Z,100887.51
2022-09-03T01:19:32.661Z,100887.11
2022-09-03T01:22:40.638Z,100886.25
2022-09-03T01:25:11.511Z,100882.80
2022-09-03T01:27:44.394Z,100884.80
2022-09-03T01:30:18.875Z,100886.02
2022-09-03T01:33:05.055Z,100880.56
2022-09-03T01:36:05.470Z,100881.89
2022-09-03T01:38:43.786Z,100883.08
2022-09-03T01:41:59.502Z,100883.28
2022-09-03T01:44:44.849Z,100886.41
2022-09-03T01:47:41.764Z,100881.17
2022-09-03T01:50:29.215Z,100880.71
2022-09-03T01:53:06.157Z,100878.86
2022-09-03T01:55:37.210Z,100880.11
2022-09-03T01:58:16.436Z,100879.17
2022-09-03T02:00:53.576Z,100876.38
2022-09-03T02:03:24.230Z,100873.88
2022-09-03T02:05:53.589Z,100873.53
2022-09-03T02:08:21.758Z,100869.69
2022-09-03T02:10:54.529Z,100864.96
2022-09-03T02:13:31.255Z,100863.40
2022-09-03T02:16:07.639Z,100864.54
2022-09-03T02:18:50.827Z,100863.58
2022-09-03T02:21:22.971Z,100863.92
2022-09-03T02:23:52.434Z,100861.96
2022-09-03T02:26:24.455Z,100861.70
2022-09-03T02:28:55.148Z,100857.17
2022-09-03T02:31:23.568Z,100857.27
2022-09-03T02:33:52.158Z,100855.19
2022-09-03T02:36:27.553Z,100861.22
2022-09-03T02:38:56.146Z,100861.99
2022-09-03T02:41:27.702Z,100859.29
2022-09-03T02:44:11.604Z,100864.21
2022-09-03T02:46:52.005Z,100861.58
2022-09-03T02:49:20.131Z,100863.38
2022-09-03T02:51:48.270Z,100863.96
2022-09-03T02:54:20.737Z,100863.27
2022-09-03T02:56:50.069Z,100861.75
2022-09-03T02:59:23.140Z,100860.20
2022-09-03T03:01:51.385Z,100854.81
2022-09-03T03:04:19.570Z,100858.97
2022-09-03T03:06:47.949Z,100855.58
2022-09-03T03:09:19.094Z,100855.30
2022-09-03T03:11:47.276Z,100856.02
2022-09-03T03:14:15.640Z,100854.17
2022-09-03T03:16:44.330Z,100856.80
2022-09-03T03:19:12.599Z,100856.05
2022-09-03T03:21:40.741Z,100856.30
2022-09-03T03:24:09.566Z,100858.91
2022-09-03T03:26:37.902Z,100860.25
2022-09-03T03:29:06.345Z,100861.83
2022-09-03T03:31:34.787Z,100863.69
2022-09-03T03:34:04.114Z,100867.94
2022-09-03T03:36:33.692Z,100869.04
2022-09-03T03:39:03.429Z,100869.16
2022-09-03T03:41:36.415Z,100875.66
2022-09-03T03:44:07.094Z,100874.65
2022-09-03T03:46:41.090Z,100876.29
2022-09-03T03:49:10.575Z,100877.80
2022-09-03T03:51:40.748Z,100880.30
2022-09-03T03:54:08.943Z,100879.02
2022-09-03T03:56:38.627Z,100879.46
2022-09-03T03:59:06.806Z,100879.59
2022-09-03T04:01:34.976Z,100876.79
2022-09-03T04:04:03.549Z,100879.77
2022-09-03T04:06:31.633Z,100878.69
2022-09-03T04:08:59.645Z,100879.27
2022-09-03T04:11:27.919Z,100881.33
2022-09-03T04:13:56.072Z,100879.36
2022-09-03T04:16:27.077Z,100885.77
2022-09-03T04:18:57.595Z,100882.90
2022-09-03T04:21:28.850Z,100882.12
2022-09-03T04:23:58.584Z,100882.78
2022-09-03T04:26:32.974Z,100885.75
2022-09-03T04:29:10.198Z,100885.43
2022-09-03T04:31:39.106Z,100884.80
2022-09-03T04:34:09.585Z,100886.66
2022-09-03T04:36:37.874Z,100886.23
2022-09-03T04:39:06.274Z,100890.88
2022-09-03T04:41:34.229Z,100892.96
2022-09-03T04:44:02.450Z,100895.00
2022-09-03T04:46:34.283Z,100900.96
2022-09-03T04:49:03.856Z,100901.99
2022-09-03T04:51:33.303Z,100901.58
2022-09-03T04:54:02.419Z,100898.77
2022-09-03T04:56:33.818Z,100901.97
2022-09-03T04:59:08.827Z,100900.23
2022-09-03T05:01:40.033Z,100903.73
2022-09-03T05:04:09.116Z,100905.58
2022-09-03T05:06:38.667Z,100906.13
2022-09-03T05:09:07.149Z,100909.56
2022-09-03T05:11:35.334Z,100906.77
2022-09-03T05:14:06.095Z,100913.04
2022-09-03T05:16:34.821Z,100919.54
2022-09-03T05:19:03.831Z,100920.64
2022-09-03T05:21:32.700Z,100926.60
2022-09-03T05:24:02.029Z,100926.72
2022-09-03T05:26:34.472Z,100930.34
2022-09-03T05:29:07.973Z,100934.12
2022-09-03T05:31:40.094Z,100935.26
2022-09-03T05:34:10.397Z,100937.10
2022-09-03T05:36:47.404Z,100945.05
2022-09-03T05:39:15.617Z,100942.50
2022-09-03T05:41:43.782Z,100940.55
2022-09-03T05:44:11.904Z,100941.28
2022-09-03T05:46:40.465Z,100942.55
2022-09-03T05:49:08.950Z,100942.48
2022-09-03T05:51:39.723Z,100940.56
2022-09-03T05:54:09.077Z,100935.27
2022-09-03T05:56:40.291Z,100939.19
2022-09-03T05:59:10.861Z,100938.70
2022-09-03T06:01:41.290Z,100941.36
2022-09-03T06:04:15.873Z,100942.77
2022-09-03T06:06:45.980Z,100940.20
2022-09-03T06:09:18.815Z,100940.58
2022-09-03T06:11:50.361Z,100941.38
2022-09-03T06:14:20.627Z,100940.23
2022-09-03T06:16:53.565Z,100940.04
2022-09-03T06:19:21.764Z,100941.25
2022-09-03T06:21:49.894Z,100940.90
2022-09-03T06:24:26.224Z,100934.04
2022-09-03T06:26:54.891Z,100938.48
2022-09-03T06:29:23.060Z,100934.26
2022-09-03T06:31:51.505Z,100923.42
2022-09-03T06:34:20.115Z,100930.92
2022-09-03T06:36:48.495Z,100931.27
2022-09-03T06:39:17.673Z,100933.13
2022-09-03T06:41:46.070Z,100932.35
2022-09-03T06:44:15.048Z,100933.29
2022-09-03T06:46:43.527Z,100928.55
2022-09-03T06:49:12.194Z,100932.27
2022-09-03T06:51:41.136Z,100933.98
2022-09-03T06:54:12.623Z,100939.92
2022-09-03T06:56:41.664Z,100937.29
2022-09-03T06:59:15.237Z,100937.89
2022-09-03T07:01:46.591Z,100938.11
2022-09-03T07:04:19.448Z,100936.84
2022-09-03T07:06:48.847Z,100932.18
2022-09-03T07:09:19.292Z,100933.55
2022-09-03T07:11:48.629Z,100930.85
2022-09-03T07:14:22.343Z,100930.11
2022-09-03T07:16:50.839Z,100932.67
2022-09-03T07:19:19.105Z,100932.10
2022-09-03T07:21:50.518Z,100933.96
2022-09-03T07:24:22.710Z,100936.34
2022-09-03T07:26:51.296Z,100937.73
2022-09-03T07:29:21.086Z,100943.14
2022-09-03T07:31:52.124Z,100945.73
2022-09-03T07:34:25.278Z,100946.80
2022-09-03T07:36:55.187Z,100948.33
2022-09-03T07:39:23.908Z,100952.42
2022-09-03T07:41:52.635Z,100951.94
2022-09-03T07:44:21.611Z,100951.66
2022-09-03T07:46:51.745Z,100950.81
2022-09-03T07:49:22.395Z,100951.60
2022-09-03T07:51:54.739Z,100950.54
2022-09-03T07:54:24.392Z,100951.61
2022-09-03T07:56:53.393Z,100945.86
2022-09-03T07:59:23.217Z,100952.07
2022-09-03T08:01:52.411Z,100948.88
2022-09-03T08:04:22.516Z,100949.19
2022-09-03T08:06:56.042Z,100954.17
2022-09-03T08:09:24.688Z,100957.23
2022-09-03T08:11:53.055Z,100959.02
2022-09-03T08:14:22.267Z,100960.38
2022-09-03T08:16:50.818Z,100964.42
2022-09-03T08:19:19.821Z,100966.70
2022-09-03T08:21:48.218Z,100966.45
2022-09-03T08:24:19.554Z,100964.31
2022-09-03T08:26:51.423Z,100959.70
2022-09-03T08:29:22.482Z,100958.73
2022-09-03T08:31:50.978Z,100963.04
2022-09-03T08:34:20.900Z,100964.98
2022-09-03T08:36:49.107Z,100958.31
2022-09-03T08:39:17.439Z,100959.15
2022-09-03T08:41:52.156Z,100957.27
2022-09-03T08:44:34.870Z,100956.67
2022-09-03T08:47:09.250Z,100952.13
2022-09-03T08:49:49.195Z,100956.07
2022-09-03T08:52:34.695Z,100955.80
2022-09-03T08:55:17.693Z,100958.05
2022-09-03T08:58:01.498Z,100958.55
2022-09-03T09:00:50.472Z,100954.96
2022-09-03T09:03:47.866Z,100949.52
2022-09-03T09:06:22.678Z,100949.61
2022-09-03T09:09:26.112Z,100949.80
2022-09-03T09:12:17.358Z,100948.85
2022-09-03T09:15:06.402Z,100944.66
2022-09-03T09:18:10.105Z,100938.70
2022-09-03T09:21:17.825Z,100944.91
2022-09-03T09:23:51.858Z,100947.86
2022-09-03T09:26:22.248Z,100948.14
2022-09-03T09:29:02.721Z,100940.46
2022-09-03T09:31:32.841Z,100942.48
2022-09-03T09:34:28.088Z,100944.56
2022-09-03T09:36:57.314Z,100941.57
2022-09-03T09:39:25.854Z,100946.06
2022-09-03T09:42:12.614Z,100952.34
2022-09-03T09:44:54.634Z,100944.37
2022-09-03T09:47:39.674Z,100945.88
2022-09-03T09:50:24.834Z,100941.05
2022-09-03T09:53:14.594Z,100940.15
2022-09-03T09:55:53.215Z,100941.17
2022-09-03T09:58:24.325Z,100946.17
2022-09-03T10:01:04.278Z,100943.52
2022-09-03T10:03:36.125Z,100942.74
2022-09-03T10:06:34.428Z,100937.83
2022-09-03T10:09:12.614Z,100940.63
2022-09-03T10:11:52.162Z,100943.55
2022-09-03T10:14:33.078Z,100952.99
2022-09-03T10:17:16.850Z,100941.48
2022-09-03T10:20:31.181Z,100935.61
2022-09-03T10:23:28.620Z,100938.70
2022-09-03T10:26:09.410Z,100940.59
2022-09-03T10:28:44.096Z,100941.51
2022-09-03T10:31:19.289Z,100944.75
2022-09-03T10:34:08.425Z,100946.59
2022-09-03T10:37:14.862Z,100939.42
2022-09-03T10:40:13.385Z,100936.94
2022-09-03T10:43:00.644Z,100934.64
2022-09-03T10:45:57.181Z,100930.65
2022-09-03T10:48:55.857Z,100930.00
2022-09-03T10:51:47.498Z,100914.19
2022-09-03T10:54:54.068Z,100915.73
2022-09-03T10:57:32.421Z,100919.95
2022-09-03T11:00:13.220Z,100922.87
2022-09-03T11:02:56.223Z,100916.27
2022-09-03T11:05:38.918Z,100909.54
2022-09-03T11:08:22.360Z,100908.22
2022-09-03T11:10:58.175Z,100900.75
2022-09-03T11:13:39.787Z,100901.25
2022-09-03T11:16:32.518Z,100900.31
2022-09-03T11:19:11.672Z,100903.73
2022-09-03T11:21:44.365Z,100905.95
2022-09-03T11:24:25.236Z,100903.63
2022-09-03T11:27:35.116Z,100894.93
2022-09-03T11:30:09.884Z,100896.58
2022-09-03T11:32:47.126Z,100897.08
2022-09-03T11:35:44.970Z,100891.92
2022-09-03T11:38:17.102Z,100895.92
2022-09-03T11:41:02.686Z,100901.27
2022-09-03T11:43:34.430Z,100899.37
2022-09-03T11:46:06.050Z,100898.67
2022-09-03T11:48:46.761Z,100893.76
2022-09-03T11:51:33.465Z,100891.05
2022-09-03T11:54:07.873Z,100890.97
2022-09-03T11:56:38.088Z,100894.68
2022-09-03T11:59:15.014Z,100887.23
2022-09-03T12:02:00.884Z,100889.46
2022-09-03T12:04:47.294Z,100885.93
2022-09-03T12:07:34.728Z,100883.05
2022-09-03T12:10:39.534Z,100889.27
2022-09-03T12:13:30.135Z,100884.84
2022-09-03T12:16:31.303Z,100879.69
2022-09-03T12:19:12.721Z,100879.73
2022-09-03T12:21:41.628Z,100872.41
2022-09-03T12:24:17.522Z,100869.56
2022-09-03T12:26:46.302Z,100868.52
2022-09-03T12:29:27.851Z,100858.56
2022-09-03T12:32:06.456Z,100848.67
2022-09-03T12:34:34.785Z,100841.50
2022-09-03T12:37:03.238Z,100841.41
2022-09-03T12:42:25.418Z,100832.26
2022-09-03T12:44:54.907Z,100832.39
2022-09-03T12:47:40.612Z,100832.34
2022-09-03T12:50:20.570Z,100831.33
2022-09-03T12:52:54.438Z,100835.46
2022-09-03T12:55:47.038Z,100835.02
2022-09-03T12:58:46.283Z,100829.17
2022-09-03T13:01:31.853Z,100825.61
2022-09-03T13:03:59.930Z,100819.38
2022-09-03T13:06:34.154Z,100820.67
2022-09-03T13:09:08.635Z,100813.56
2022-09-03T13:11:37.714Z,100814.66
2022-09-03T13:14:12.328Z,100803.71
2022-09-03T13:16:46.881Z,100799.94
2022-09-03T13:19:46.249Z,100800.13
2022-09-03T13:22:35.826Z,100792.21
2022-09-03T13:25:26.215Z,100796.53
2022-09-03T13:28:06.620Z,100800.52
2022-09-03T13:30:52.505Z,100796.50
2022-09-03T13:33:47.826Z,100788.48
2022-09-03T13:36:26.302Z,100787.57
2022-09-03T13:39:08.594Z,100786.36
2022-09-03T13:41:50.272Z,100784.13
2022-09-03T13:44:25.174Z,100775.05
2022-09-03T13:47:05.958Z,100779.39
2022-09-03T13:50:10.954Z,100779.02
2022-09-03T13:52:52.510Z,100778.44
2022-09-03T13:55:36.974Z,100781.55
2022-09-03T13:58:32.458Z,100779.19
2022-09-03T14:01:03.145Z,100777.86
2022-09-03T14:03:58.905Z,100773.57
2022-09-03T14:06:39.038Z,100777.95
2022-09-03T14:09:27.040Z,100775.34
2022-09-03T14:12:47.057Z,100778.56
2022-09-03T14:15:26.375Z,100776.93
2022-09-03T14:18:20.008Z,100777.99
2022-09-03T14:21:08.847Z,100784.91
2022-09-03T14:23:48.905Z,100789.05
2022-09-03T14:26:38.663Z,100792.84
2022-09-03T14:29:10.771Z,100797.67
2022-09-03T14:31:38.783Z,100800.70
2022-09-03T14:34:43.177Z,100803.48
2022-09-03T14:37:48.377Z,100800.93
2022-09-03T14:40:25.089Z,100802.48
2022-09-03T14:43:17.277Z,100795.67
2022-09-03T14:45:59.345Z,100792.80
2022-09-03T14:49:08.073Z,100785.61
2022-09-03T14:51:52.821Z,100790.83
2022-09-03T14:54:42.376Z,100787.35
2022-09-03T14:57:32.066Z,100785.48
2022-09-03T15:00:19.804Z,100779.98
2022-09-03T15:02:59.976Z,100772.66
2022-09-03T15:06:03.330Z,100778.46
2022-09-03T15:09:12.207Z,100780.84
2022-09-03T15:12:00.806Z,100786.05
2022-09-03T15:14:55.809Z,100789.05
2022-09-03T15:17:45.198Z,100793.23
2022-09-03T15:20:15.957Z,100795.14
2022-09-03T15:22:55.736Z,100798.61
2022-09-03T15:25:59.465Z,100794.54
2022-09-03T15:28:35.815Z,100797.46
2022-09-03T15:31:14.378Z,100797.38
2022-09-03T15:33:57.495Z,100797.93
2022-09-03T15:36:36.778Z,100797.84
2022-09-03T15:39:23.674Z,100790.65
2022-09-03T15:42:14.459Z,100784.27
2022-09-03T15:44:49.106Z,100777.38
2022-09-03T15:47:51.640Z,100778.80
2022-09-03T15:50:40.338Z,100773.53
2022-09-03T15:53:55.371Z,100775.08
2022-09-03T15:56:38.966Z,100775.74
2022-09-03T15:59:26.859Z,100774.14
2022-09-03T16:01:59.371Z,100775.14
2022-09-03T16:04:35.892Z,100775.26
2022-09-03T16:07:38.550Z,100779.58
2022-09-03T16:10:26.842Z,100776.58
2022-09-03T16:12:57.604Z,100773.98
2022-09-03T16:15:35.239Z,100775.73
2022-09-03T16:18:36.017Z,100780.23
2022-09-03T16:21:20.798Z,100780.42
2022-09-03T16:24:16.547Z,100780.45
2022-09-03T16:26:47.400Z,100777.61
2022-09-03T16:29:19.339Z,100776.14
2022-09-03T16:32:01.702Z,100771.35
2022-09-03T16:34:36.779Z,100762.43
2022-09-03T16:37:44.183Z,100758.17
2022-09-03T16:40:34.078Z,100755.59
2022-09-03T16:43:43.900Z,100752.23
2022-09-03T16:46:30.211Z,100752.47
2022-09-03T16:49:10.697Z,100742.28
2022-09-03T16:51:54.356Z,100743.35
2022-09-03T16:54:44.588Z,100744.77
2022-09-03T16:57:30.410Z,100745.16
2022-09-03T17:00:15.391Z,100742.99
2022-09-03T17:03:07.563Z,100741.98
2022-09-03T17:05:41.451Z,100743.92
2022-09-03T17:08:18.694Z,100746.94
2022-09-03T17:10:53.383Z,100744.39
2022-09-03T17:13:30.627Z,100744.23
2022-09-03T17:16:24.772Z,100747.90
2022-09-03T17:18:57.070Z,100749.81
2022-09-03T17:21:25.206Z,100751.46
2022-09-03T17:24:00.039Z,100755.17
2022-09-03T17:26:43.356Z,100755.77
2022-09-03T17:29:29.455Z,100758.73
2022-09-03T17:32:28.355Z,100757.08
2022-09-03T17:35:21.062Z,100757.48
2022-09-03T17:38:13.339Z,100761.45
2022-09-03T17:41:14.122Z,100762.88
2022-09-03T17:43:59.816Z,100764.84
2022-09-03T17:46:46.980Z,100762.18
2022-09-03T17:49:24.311Z,100766.12
2022-09-03T17:52:07.753Z,100769.70
2022-09-03T17:54:44.381Z,100772.59
2022-09-03T17:57:31.519Z,100773.60
2022-09-03T18:00:09.178Z,100780.86
2022-09-03T18:02:52.338Z,100783.27
2022-09-03T18:05:29.706Z,100784.77
2022-09-03T18:08:22.307Z,100789.39
2022-09-03T18:11:14.429Z,100785.74
2022-09-03T18:13:48.326Z,100788.98
2022-09-03T18:16:22.370Z,100785.67
2022-09-03T18:18:53.320Z,100779.39
2022-09-03T18:21:43.900Z,100780.51
2022-09-03T18:24:51.073Z,100782.44
2022-09-03T18:27:53.021Z,100781.91
2022-09-03T18:30:40.208Z,100776.92
2022-09-03T18:33:27.041Z,100780.85
2022-09-03T18:36:14.385Z,100776.23
2022-09-03T18:39:01.024Z,100776.00
2022-09-03T18:42:42.816Z,100776.27
2022-09-03T18:49:28.115Z,100777.48
2022-09-03T18:52:40.475Z,100777.08
2022-09-03T18:55:55.656Z,100777.70
2022-09-03T18:59:21.468Z,100776.84
2022-09-03T19:02:08.435Z,100778.35
2022-09-03T19:05:29.279Z,100777.30
2022-09-03T19:08:41.658Z,100776.18
2022-09-03T19:12:10.120Z,100776.35
2022-09-03T19:15:37.232Z,100781.44
2022-09-03T19:18:28.893Z,100784.66
2022-09-03T19:21:40.455Z,100784.15
2022-09-03T19:24:27.798Z,100785.77
2022-09-03T19:27:57.266Z,100785.35
2022-09-03T19:31:04.985Z,100786.17
2022-09-03T19:34:20.994Z,100787.82
2022-09-03T19:37:50.375Z,100786.03
2022-09-03T19:41:01.858Z,100782.77
2022-09-03T19:43:54.655Z,100786.25
2022-09-03T19:46:55.808Z,100787.55
2022-09-03T19:49:54.710Z,100791.58
2022-09-03T19:52:43.985Z,100792.48
2022-09-03T19:55:40.919Z,100795.86
2022-09-03T19:58:42.709Z,100794.98
2022-09-03T20:01:32.050Z,100797.77
2022-09-03T20:04:35.155Z,100801.60
2022-09-03T20:07:27.352Z,100802.94
2022-09-03T20:10:21.270Z,100800.84
2022-09-03T20:13:05.323Z,100798.88
2022-09-03T20:15:49.665Z,100803.11
2022-09-03T20:18:48.323Z,100801.70
2022-09-03T20:21:47.895Z,100805.48
2022-09-03T20:24:40.360Z,100803.84
2022-09-03T20:27:32.153Z,100801.80
2022-09-03T20:30:08.256Z,100798.75
2022-09-03T20:33:07.175Z,100798.05
2022-09-03T20:35:57.369Z,100799.83
2022-09-03T20:38:53.417Z,100804.57
2022-09-03T20:41:39.639Z,100805.40
2022-09-03T20:44:17.019Z,100809.77
2022-09-03T20:46:45.825Z,100811.39
2022-09-03T20:49:23.037Z,100813.73
2022-09-03T20:52:18.896Z,100814.27
2022-09-03T20:55:24.836Z,100812.81
2022-09-03T20:58:15.934Z,100814.29
2022-09-03T21:01:03.228Z,100817.71
2022-09-03T21:03:50.240Z,100823.10
2022-09-03T21:06:34.120Z,100828.66
2022-09-03T21:09:20.776Z,100827.98
2022-09-03T21:12:04.154Z,100826.54
2022-09-03T21:14:42.680Z,100826.83
2022-09-03T21:17:32.493Z,100823.38
2022-09-03T21:20:34.682Z,100831.23
2022-09-03T21:23:21.263Z,100832.84
2022-09-03T21:25:56.640Z,100829.45
2022-09-03T21:28:33.788Z,100836.92
2022-09-03T21:31:11.608Z,100840.99
2022-09-03T21:33:41.695Z,100837.63
2022-09-03T21:36:17.655Z,100836.08
2022-09-03T21:38:54.859Z,100838.84
2022-09-03T21:41:54.494Z,100839.38
2022-09-03T21:44:36.548Z,100838.54
2022-09-03T21:47:16.632Z,100832.52
2022-09-03T21:49:56.686Z,100836.58
2022-09-03T21:52:34.557Z,100839.70
2022-09-03T21:55:17.925Z,100841.14
2022-09-03T21:58:25.989Z,100843.74
2022-09-03T22:01:00.879Z,100845.02
2022-09-03T22:03:29.269Z,100848.60
2022-09-03T22:06:25.963Z,100852.33
2022-09-03T22:09:17.665Z,100853.52
2022-09-03T22:12:02.715Z,100849.91
2022-09-03T22:14:43.525Z,100851.11
2022-09-03T22:17:44.210Z,100849.21
2022-09-03T22:20:15.627Z,100852.39
2022-09-03T22:22:58.026Z,100851.75
2022-09-03T22:25:47.011Z,100860.08
2022-09-03T22:28:28.280Z,100862.59
2022-09-03T22:31:35.750Z,100861.11
2022-09-03T22:34:48.521Z,100861.19
2022-09-03T22:37:42.955Z,100865.84
2022-09-03T22:40:23.745Z,100869.30
2022-09-03T22:43:03.827Z,100870.75
2022-09-03T22:45:55.134Z,100870.21
2022-09-03T22:48:44.748Z,100875.83
2022-09-03T22:51:13.579Z,100874.42
2022-09-03T22:54:18.752Z,100874.88
2022-09-03T22:56:47.953Z,100878.33
2022-09-03T22:59:24.246Z,100872.84
2022-09-03T23:02:16.169Z,100872.96
2022-09-03T23:04:59.205Z,100869.58
2022-09-03T23:07:39.415Z,100869.88
2022-09-03T23:10:21.056Z,100867.61
2022-09-03T23:13:15.066Z,100871.39
2022-09-03T23:15:46.415Z,100872.77
2022-09-03T23:18:20.720Z,100874.41
2022-09-03T23:21:22.549Z,100875.92
2022-09-03T23:24:00.155Z,100878.13
2022-09-03T23:26:43.193Z,100884.74
2022-09-03T23:29:23.838Z,100885.98
2022-09-03T23:31:54.715Z,100889.64
2022-09-03T23:34:23.514Z,100897.32
2022-09-03T23:37:34.283Z,100902.96
2022-09-03T23:40:40.967Z,100901.55
2022-09-03T23:43:23.178Z,100907.30
2022-09-03T23:46:05.661Z,100909.58
2022-09-03T23:48:43.117Z,100910.56
2022-09-03T23:51:56.659Z,100913.78
2022-09-03T23:54:30.609Z,100911.55
2022-09-03T23:57:08.897Z,100909.73
